createdAt,value
2022-08-04T00:02:25.948Z,7.81
2022-08-04T00:04:46.824Z,7.42
2022-08-04T00:06:06.434Z,8.25
2022-08-04T00:08:53.132Z,7.59
2022-08-04T00:15:10.445Z,8.18
2022-08-04T00:16:16.741Z,8.51
2022-08-04T00:18:47.285Z,8.20
2022-08-04T00:19:54.722Z,7.53
2022-08-04T00:21:01.683Z,8.21
2022-08-04T00:23:21.654Z,7.65
2022-08-04T00:25:40.028Z,7.38
2022-08-04T00:27:54.888Z,8.11
2022-08-04T00:30:10.044Z,8.64
2022-08-04T00:31:15.921Z,8.05
2022-08-04T00:32:34.135Z,8.05
2022-08-04T00:33:25.930Z,7.51
2022-08-04T00:35:44.116Z,7.46
2022-08-04T00:38:00.067Z,7.65
2022-08-04T00:39:03.734Z,7.51
2022-08-04T00:41:56.333Z,7.14
2022-08-04T00:44:40.550Z,6.81
2022-08-04T00:47:08.377Z,6.29
2022-08-04T00:50:06.372Z,7.15
2022-08-04T00:51:28.637Z,7.51
2022-08-04T00:52:47.896Z,6.87
2022-08-04T00:55:43.624Z,7.02
2022-08-04T00:58:56.966Z,7.02
2022-08-04T01:00:09.354Z,6.66
2022-08-04T01:01:35.117Z,6.29
2022-08-04T01:04:40.457Z,7.23
2022-08-04T01:08:30.543Z,7.37
2022-08-04T01:11:25.194Z,7.58
2022-08-04T01:12:38.086Z,7.72
2022-08-04T01:15:32.230Z,7.58
2022-08-04T01:18:07.484Z,6.67
2022-08-04T01:21:04.734Z,6.99
2022-08-04T01:22:33.195Z,7.52
2022-08-04T01:24:04.465Z,7.28
2022-08-04T01:27:07.052Z,6.95
2022-08-04T01:28:17.102Z,6.80
2022-08-04T01:29:47.077Z,7.34
2022-08-04T01:30:50.719Z,7.52
2022-08-04T01:32:04.204Z,6.78
2022-08-04T01:34:28.294Z,6.75
2022-08-04T01:35:53.404Z,6.64
2022-08-04T01:37:08.867Z,6.98
2022-08-04T01:41:05.283Z,6.29
2022-08-04T01:43:23.583Z,7.29
2022-08-04T01:45:39.811Z,6.50
2022-08-04T01:46:45.852Z,6.98
2022-08-04T01:49:07.304Z,7.76
2022-08-04T01:51:24.520Z,7.27
2022-08-04T01:53:43.455Z,7.38
2022-08-04T01:54:49.021Z,7.27
2022-08-04T01:56:12.439Z,7.36
2022-08-04T01:57:37.591Z,7.80
2022-08-04T01:59:42.680Z,8.00
2022-08-04T02:02:01.688Z,6.89
2022-08-04T02:04:23.122Z,7.20
2022-08-04T02:08:15.715Z,6.98
2022-08-04T02:10:52.324Z,7.79
2022-08-04T02:13:28.611Z,7.09
2022-08-04T02:16:05.700Z,7.62
2022-08-04T02:18:45.437Z,8.17
2022-08-04T02:21:24.924Z,8.42
2022-08-04T02:25:18.656Z,8.55
2022-08-04T02:32:03.606Z,9.21
2022-08-04T02:34:32.512Z,9.38
2022-08-04T02:36:52.474Z,10.11
2022-08-04T02:39:18.319Z,9.79
2022-08-04T02:40:24.415Z,9.76
2022-08-04T02:41:32.324Z,9.94
2022-08-04T02:43:52.074Z,10.45
2022-08-04T02:46:17.652Z,9.71
2022-08-04T02:48:36.211Z,9.87
2022-08-04T02:51:05.135Z,10.87
2022-08-04T02:53:22.782Z,10.32
2022-08-04T02:55:50.747Z,10.30
2022-08-04T02:58:03.298Z,10.34
2022-08-04T03:00:21.243Z,11.21
2022-08-04T03:01:24.747Z,11.04
2022-08-04T03:04:24.695Z,10.97
2022-08-04T03:07:23.185Z,10.84
2022-08-04T03:10:05.285Z,11.26
2022-08-04T03:11:21.489Z,10.99
2022-08-04T03:13:52.453Z,11.26
2022-08-04T03:15:11.797Z,11.61
2022-08-04T03:17:55.237Z,10.80
2022-08-04T03:22:23.261Z,11.08
2022-08-04T03:25:06.597Z,12.13
2022-08-04T03:29:37.456Z,11.41
2022-08-04T03:32:25.736Z,11.28
2022-08-04T03:33:39.109Z,11.23
2022-08-04T03:36:49.947Z,10.94
2022-08-04T03:38:15.400Z,11.57
2022-08-04T03:41:05.028Z,11.64
2022-08-04T03:44:18.920Z,11.19
2022-08-04T03:47:18.586Z,11.55
2022-08-04T03:50:16.990Z,12.11
2022-08-04T03:53:07.533Z,11.73
2022-08-04T03:54:41.659Z,11.21
2022-08-04T03:56:22.533Z,12.77
2022-08-04T03:59:19.650Z,12.24
2022-08-04T04:02:08.302Z,11.97
2022-08-04T04:04:48.254Z,12.16
2022-08-04T04:08:58.647Z,12.19
2022-08-04T04:12:10.865Z,12.81
2022-08-04T04:15:27.275Z,12.36
2022-08-04T04:16:54.056Z,12.31
2022-08-04T04:19:35.885Z,13.02
2022-08-04T04:24:04.763Z,13.92
2022-08-04T04:27:00.315Z,12.85
2022-08-04T04:29:57.050Z,13.82
2022-08-04T04:34:25.686Z,12.57
2022-08-04T04:37:02.710Z,13.82
2022-08-04T04:40:14.997Z,13.51
2022-08-04T04:43:17.791Z,13.89
2022-08-04T04:46:01.970Z,13.43
2022-08-04T04:50:15.104Z,14.49
2022-08-04T04:54:23.624Z,13.28
2022-08-04T04:56:54.861Z,13.61
2022-08-04T04:59:14.961Z,13.68
2022-08-04T05:02:20.810Z,13.30
2022-08-04T05:05:45.067Z,12.61
2022-08-04T05:08:45.448Z,13.14
2022-08-04T05:09:55.709Z,12.57
2022-08-04T05:14:32.166Z,13.12
2022-08-04T05:18:32.471Z,13.40
2022-08-04T05:21:21.538Z,13.62
2022-08-04T05:25:25.556Z,12.93
2022-08-04T05:27:47.244Z,13.32
2022-08-04T05:30:12.749Z,13.28
2022-08-04T05:34:10.716Z,13.91
2022-08-04T05:38:01.154Z,14.47
2022-08-04T05:40:18.750Z,15.46
2022-08-04T05:41:23.833Z,14.84
2022-08-04T05:43:44.785Z,13.67
2022-08-04T05:46:01.393Z,14.61
2022-08-04T05:48:17.655Z,14.43
2022-08-04T05:50:37.291Z,12.72
2022-08-04T05:52:59.901Z,13.76
2022-08-04T05:55:57.161Z,13.97
2022-08-04T05:56:23.328Z,14.08
2022-08-04T05:58:39.654Z,13.56
2022-08-04T06:00:58.422Z,14.47
2022-08-04T06:03:17.069Z,13.59
2022-08-04T06:05:36.447Z,14.12
2022-08-04T06:08:12.508Z,14.48
2022-08-04T06:10:10.788Z,12.47
2022-08-04T06:14:00.954Z,13.76
2022-08-04T06:15:07.982Z,13.29
2022-08-04T06:19:56.437Z,14.25
2022-08-04T06:24:02.432Z,14.48
2022-08-04T06:26:17.501Z,16.85
2022-08-04T06:28:35.342Z,14.60
2022-08-04T06:29:40.085Z,13.43
2022-08-04T06:32:30.162Z,14.40
2022-08-04T06:33:08.706Z,15.11
2022-08-04T06:35:26.152Z,14.67
2022-08-04T06:38:00.740Z,14.55
2022-08-04T06:42:01.920Z,14.66
2022-08-04T06:44:05.370Z,15.87
2022-08-04T06:47:36.835Z,15.24
2022-08-04T06:51:32.024Z,15.18
2022-08-04T06:54:55.061Z,13.91
2022-08-04T06:56:01.479Z,14.62
2022-08-04T06:58:19.941Z,13.76
2022-08-04T06:59:25.854Z,13.87
2022-08-04T07:01:43.517Z,13.33
2022-08-04T07:04:09.957Z,13.31
2022-08-04T07:06:26.160Z,13.16
2022-08-04T07:13:53.235Z,13.92
2022-08-04T07:16:11.832Z,13.97
2022-08-04T07:18:29.564Z,13.72
2022-08-04T07:19:36.658Z,14.98
2022-08-04T07:22:16.247Z,14.00
2022-08-04T07:24:17.692Z,13.56
2022-08-04T07:26:32.997Z,13.83
2022-08-04T07:28:47.724Z,13.61
2022-08-04T07:29:52.064Z,13.49
2022-08-04T07:30:57.624Z,13.91
2022-08-04T07:33:21.337Z,14.56
2022-08-04T07:36:05.425Z,14.23
2022-08-04T07:36:50.130Z,14.67
2022-08-04T07:37:52.212Z,14.54
2022-08-04T07:40:07.549Z,13.88
2022-08-04T07:42:22.856Z,13.19
2022-08-04T07:43:26.794Z,14.51
2022-08-04T07:44:32.034Z,13.53
2022-08-04T07:45:35.952Z,13.38
2022-08-04T07:48:05.324Z,13.40
2022-08-04T07:50:09.627Z,13.23
2022-08-04T07:52:26.173Z,13.09
2022-08-04T07:54:43.368Z,14.00
2022-08-04T07:56:59.023Z,13.23
2022-08-04T07:59:14.369Z,12.56
2022-08-04T08:01:31.722Z,12.73
2022-08-04T08:05:14.642Z,13.12
2022-08-04T08:06:32.957Z,12.42
2022-08-04T08:08:40.121Z,12.14
2022-08-04T08:09:43.917Z,14.18
2022-08-04T08:10:47.953Z,11.87
2022-08-04T08:13:06.546Z,11.50
2022-08-04T08:14:10.411Z,13.09
2022-08-04T08:16:27.073Z,11.86
2022-08-04T08:18:46.781Z,13.45
2022-08-04T08:21:06.208Z,12.53
2022-08-04T08:23:19.900Z,12.54
2022-08-04T08:25:37.012Z,11.89
2022-08-04T08:26:41.346Z,12.95
2022-08-04T08:28:56.586Z,12.83
2022-08-04T08:30:00.208Z,13.32
2022-08-04T08:31:07.220Z,12.52
2022-08-04T08:32:12.309Z,12.14
2022-08-04T08:34:29.105Z,11.98
2022-08-04T08:35:53.687Z,12.56
2022-08-04T08:38:15.025Z,11.84
2022-08-04T08:40:40.554Z,12.41
2022-08-04T08:44:00.338Z,11.90
2022-08-04T08:48:16.853Z,12.72
2022-08-04T08:51:10.667Z,13.56
2022-08-04T08:52:56.360Z,12.19
2022-08-04T08:55:14.613Z,13.26
2022-08-04T08:58:04.484Z,12.23
2022-08-04T09:01:19.628Z,12.24
2022-08-04T09:02:46.633Z,11.63
2022-08-04T09:07:14.326Z,13.74
2022-08-04T09:11:27.431Z,11.61
2022-08-04T09:27:56.862Z,13.01
2022-08-04T09:30:33.945Z,12.99
2022-08-04T09:33:16.925Z,12.90
2022-08-04T09:37:16.437Z,12.41
2022-08-04T09:40:31.114Z,12.48
2022-08-04T09:43:28.527Z,10.79
2022-08-04T09:46:28.011Z,12.36
2022-08-04T09:49:19.566Z,10.56
2022-08-04T09:51:57.427Z,11.84
2022-08-04T09:56:11.828Z,11.55
2022-08-04T09:57:28.490Z,9.98
2022-08-04T10:00:05.648Z,11.42
2022-08-04T10:05:17.602Z,12.22
2022-08-04T10:08:16.576Z,11.31
2022-08-04T10:12:42.511Z,9.38
2022-08-04T10:16:48.766Z,9.27
2022-08-04T10:19:36.525Z,9.12
2022-08-04T10:21:08.899Z,8.55
2022-08-04T10:24:13.826Z,9.32
2022-08-04T10:27:04.567Z,9.40
2022-08-04T10:29:33.540Z,9.80
2022-08-04T10:33:34.416Z,7.96
2022-08-04T10:35:59.032Z,9.04
2022-08-04T10:38:59.036Z,8.64
2022-08-04T10:41:48.756Z,8.57
2022-08-04T10:46:34.252Z,8.54
2022-08-04T10:49:11.614Z,8.90
2022-08-04T10:51:57.618Z,8.99
2022-08-04T11:03:58.748Z,9.38
2022-08-04T11:06:30.371Z,7.98
2022-08-04T11:08:51.364Z,7.79
2022-08-04T11:10:00.498Z,8.02
2022-08-04T11:11:25.841Z,7.32
2022-08-04T11:14:01.851Z,7.34
2022-08-04T11:16:29.121Z,7.33
2022-08-04T11:19:14.137Z,6.96
2022-08-04T11:21:39.224Z,7.27
2022-08-04T11:25:52.465Z,7.24
2022-08-04T11:28:46.287Z,7.22
2022-08-04T11:31:23.374Z,7.45
2022-08-04T11:33:51.168Z,7.04
2022-08-04T11:36:22.301Z,7.01
2022-08-04T11:39:02.966Z,6.54
2022-08-04T11:44:01.850Z,5.88
2022-08-04T11:47:46.683Z,6.18
2022-08-04T11:54:13.044Z,5.93
2022-08-04T11:56:35.787Z,5.93
2022-08-04T11:57:38.054Z,20.39
2022-08-04T11:59:59.475Z,6.34
2022-08-04T12:05:23.448Z,7.81
2022-08-04T12:07:58.985Z,7.91
2022-08-04T12:12:41.172Z,8.35
2022-08-04T12:15:40.926Z,12.96
2022-08-04T12:20:04.629Z,7.97
2022-08-04T12:22:28.337Z,9.57
2022-08-04T12:26:17.803Z,8.33
2022-08-04T12:29:09.218Z,8.70
2022-08-04T12:30:56.292Z,8.37
2022-08-04T12:33:00.816Z,8.98
2022-08-04T12:38:11.056Z,7.41
2022-08-04T12:39:19.893Z,7.52
2022-08-04T12:40:29.646Z,8.25
2022-08-04T12:44:39.011Z,7.36
2022-08-04T12:45:48.710Z,6.69
2022-08-04T12:50:23.679Z,7.09
2022-08-04T12:52:06.237Z,6.47
2022-08-04T12:55:01.096Z,7.13
2022-08-04T12:57:21.879Z,23.77
2022-08-04T12:59:58.295Z,7.06
2022-08-04T13:05:10.938Z,6.62
2022-08-04T13:08:50.406Z,7.89
2022-08-04T13:11:21.576Z,7.32
2022-08-04T13:14:24.463Z,8.72
2022-08-04T13:16:32.136Z,8.94
2022-08-04T13:19:09.364Z,9.46
2022-08-04T13:21:50.226Z,9.16
2022-08-04T13:26:43.532Z,9.72
2022-08-04T13:28:27.036Z,9.62
2022-08-04T13:30:57.146Z,11.29
2022-08-04T13:33:29.109Z,11.81
2022-08-04T13:34:42.043Z,10.97
2022-08-04T13:38:34.398Z,9.41
2022-08-04T13:41:19.181Z,10.33
2022-08-04T13:50:00.999Z,9.69
2022-08-04T14:04:19.372Z,9.44
2022-08-04T14:08:16.968Z,9.34
2022-08-04T14:10:30.736Z,8.93
2022-08-04T14:12:58.362Z,11.11
2022-08-04T14:17:18.057Z,8.90
2022-08-04T14:25:16.271Z,7.77
2022-08-04T14:29:27.327Z,7.42
2022-08-04T14:34:04.668Z,6.46
2022-08-04T14:37:16.296Z,6.26
2022-08-04T14:41:55.694Z,8.17
2022-08-04T14:45:54.391Z,6.78
2022-08-04T14:49:27.052Z,6.33
2022-08-04T14:54:33.836Z,6.57
2022-08-04T14:58:34.169Z,6.99
2022-08-04T15:01:12.594Z,7.20
2022-08-04T15:02:16.702Z,6.87
2022-08-04T15:04:32.534Z,7.28
2022-08-04T15:08:15.658Z,13.27
2022-08-04T15:10:43.984Z,8.84
2022-08-04T15:13:08.856Z,7.20
2022-08-04T15:16:39.794Z,8.29
2022-08-04T15:19:09.942Z,8.69
2022-08-04T15:21:40.512Z,8.54
2022-08-04T15:23:56.838Z,7.19
2022-08-04T15:27:36.557Z,8.62
2022-08-04T15:30:00.491Z,7.79
2022-08-04T15:32:30.108Z,11.19
2022-08-04T15:34:52.856Z,10.42
2022-08-04T15:39:18.741Z,7.81
2022-08-04T15:49:30.859Z,13.05
2022-08-04T15:52:11.750Z,19.84
2022-08-04T15:53:13.174Z,15.89
2022-08-04T15:54:27.277Z,13.04
2022-08-04T15:57:01.925Z,10.04
2022-08-04T15:59:58.551Z,8.34
2022-08-04T16:02:35.893Z,8.51
2022-08-04T16:05:22.172Z,10.00
2022-08-04T16:06:30.638Z,10.33
2022-08-04T16:07:59.791Z,8.96
2022-08-04T16:09:04.745Z,9.48
2022-08-04T16:11:46.050Z,9.17
2022-08-04T16:15:51.566Z,8.35
2022-08-04T16:19:58.497Z,8.73
2022-08-04T16:24:02.253Z,9.23
2022-08-04T16:26:42.284Z,8.72
2022-08-04T16:27:47.255Z,8.62
2022-08-04T16:30:12.038Z,9.08
2022-08-04T16:34:49.892Z,8.47
2022-08-04T16:37:05.374Z,9.44
2022-08-04T16:39:26.052Z,12.77
2022-08-04T16:43:17.158Z,9.64
2022-08-04T16:47:22.268Z,8.56
2022-08-04T16:50:54.637Z,9.32
2022-08-04T16:54:39.141Z,8.36
2022-08-04T17:09:18.100Z,7.81
2022-08-04T17:14:02.378Z,7.29
2022-08-04T17:17:09.086Z,7.99
2022-08-04T17:21:01.070Z,8.33
2022-08-04T17:24:48.725Z,7.46
2022-08-04T17:28:47.242Z,7.96
2022-08-04T17:31:00.546Z,7.99
2022-08-04T17:32:25.807Z,7.23
2022-08-04T17:33:54.750Z,7.31
2022-08-04T17:35:56.230Z,7.27
2022-08-04T17:39:57.787Z,7.51
2022-08-04T17:44:01.508Z,11.69
2022-08-04T17:47:51.815Z,8.23
2022-08-04T17:52:06.941Z,8.89
2022-08-04T17:55:43.712Z,9.06
2022-08-04T17:59:56.170Z,9.23
2022-08-04T18:02:33.421Z,8.82
2022-08-04T18:05:07.884Z,8.33
2022-08-04T18:08:41.235Z,9.04
2022-08-04T18:11:18.223Z,7.57
2022-08-04T18:19:55.486Z,7.46
2022-08-04T18:23:32.754Z,7.71
2022-08-04T18:27:14.583Z,7.74
2022-08-04T18:30:55.568Z,7.14
2022-08-04T18:33:40.041Z,8.17
2022-08-04T18:34:24.410Z,7.47
2022-08-04T18:36:41.112Z,8.23
2022-08-04T18:39:12.943Z,7.43
2022-08-04T18:41:26.548Z,7.98
2022-08-04T18:45:05.647Z,8.04
2022-08-04T18:48:42.538Z,7.97
2022-08-04T18:52:24.148Z,8.15
2022-08-04T18:56:00.030Z,8.41
2022-08-04T18:59:36.645Z,7.34
2022-08-04T19:03:16.596Z,7.23
2022-08-04T19:06:51.752Z,8.12
2022-08-04T19:10:30.949Z,8.52
2022-08-04T19:14:07.865Z,8.63
2022-08-04T19:16:35.590Z,8.76
2022-08-04T19:18:51.829Z,8.57
2022-08-04T19:21:16.577Z,8.09
2022-08-04T19:22:35.848Z,8.55
2022-08-04T19:24:30.533Z,8.64
2022-08-04T19:26:01.312Z,8.72
2022-08-04T19:29:23.495Z,8.67
2022-08-04T19:32:59.529Z,8.85
2022-08-04T19:36:37.082Z,8.94
2022-08-04T19:40:17.125Z,9.59
2022-08-04T19:43:55.447Z,9.48
2022-08-04T20:05:54.387Z,9.71
2022-08-04T20:19:51.115Z,9.92
2022-08-04T20:23:47.662Z,9.54
2022-08-04T20:25:50.706Z,10.12
2022-08-04T20:28:07.469Z,10.26
2022-08-04T20:31:43.824Z,10.17
2022-08-04T20:35:19.819Z,10.96
2022-08-04T20:38:55.897Z,9.76
2022-08-04T20:41:22.177Z,11.48
2022-08-04T20:43:38.033Z,11.49
2022-08-04T20:47:15.077Z,11.75
2022-08-04T20:50:53.864Z,10.12
2022-08-04T20:53:18.518Z,10.80
2022-08-04T20:55:32.985Z,10.42
2022-08-04T20:58:02.888Z,11.02
2022-08-04T21:00:16.207Z,10.90
2022-08-04T21:03:59.822Z,11.27
2022-08-04T21:07:30.602Z,11.18
2022-08-04T21:11:09.376Z,11.46
2022-08-04T21:14:48.348Z,11.83
2022-08-04T21:18:29.047Z,11.88
2022-08-04T21:20:52.648Z,10.79
2022-08-04T21:23:13.261Z,12.54
2022-08-04T21:25:43.567Z,11.07
2022-08-04T21:26:43.311Z,11.89
2022-08-04T21:28:08.488Z,11.14
2022-08-04T21:30:26.131Z,11.59
2022-08-04T21:34:01.061Z,12.40
2022-08-04T21:36:27.393Z,11.72
2022-08-04T21:38:51.053Z,11.32
2022-08-04T21:42:29.737Z,11.27
2022-08-04T21:46:04.814Z,11.66
2022-08-04T21:49:39.950Z,13.47
2022-08-04T21:53:22.602Z,11.78
2022-08-04T21:56:05.614Z,12.15
2022-08-04T21:58:05.045Z,12.51
2022-08-04T22:00:30.804Z,13.77
2022-08-04T22:01:50.407Z,11.89
2022-08-04T22:03:52.734Z,11.74
2022-08-04T22:06:17.692Z,11.41
2022-08-04T22:08:32.239Z,10.89
2022-08-04T22:10:57.908Z,11.12
2022-08-04T22:13:12.284Z,10.43
2022-08-04T22:16:03.759Z,9.91
2022-08-04T22:16:45.993Z,10.77
2022-08-04T22:19:02.415Z,9.29
2022-08-04T22:21:29.693Z,9.82
2022-08-04T22:23:47.008Z,9.14
2022-08-04T22:27:28.129Z,9.83
2022-08-04T22:31:23.131Z,9.60
2022-08-04T22:33:53.907Z,8.44
2022-08-04T22:35:49.270Z,8.76
2022-08-04T22:39:27.484Z,8.66
2022-08-04T22:43:32.132Z,8.97
2022-08-04T22:47:20.234Z,8.73
2022-08-04T22:50:49.912Z,8.58
2022-08-04T22:54:26.071Z,8.13
2022-08-04T22:58:04.543Z,8.86
2022-08-04T23:01:58.751Z,8.71
2022-08-04T23:04:08.686Z,8.84
2022-08-04T23:06:24.948Z,8.30
2022-08-04T23:08:50.175Z,8.44
2022-08-04T23:11:09.750Z,8.71
2022-08-04T23:14:46.015Z,8.06
2022-08-04T23:18:23.344Z,8.38
2022-08-04T23:22:02.170Z,8.47
2022-08-04T23:24:29.804Z,7.99
2022-08-04T23:26:48.303Z,8.65
2022-08-04T23:29:13.077Z,8.50
2022-08-04T23:31:40.783Z,8.54
2022-08-04T23:33:57.695Z,8.97
2022-08-04T23:36:15.570Z,8.52
2022-08-04T23:40:15.775Z,8.92
2022-08-04T23:43:54.928Z,9.02
2022-08-04T23:46:08.210Z,9.48
2022-08-04T23:48:22.112Z,8.77
2022-08-04T23:50:47.337Z,9.43
2022-08-04T23:53:01.645Z,9.12
2022-08-04T23:55:48.238Z,11.08
2022-08-04T23:56:51.489Z,10.03
2022-08-04T23:59:06.052Z,11.34
